Time;durP1;ratioP1;P1;durP2;ratioP2;P2;SDS_P1;SDS_P2;PMS_P1;PMS_P2;Temp;Humidity;BMP_temperature;BMP_pressure;BME280_temperature;BME280_humidity;BME280_pressure;Samples;Min_cycle;Max_cycle;Signal;HPM_P1;HPM_P2
2023/12/05 00:00:54;;;;;;;23.25;11.23;;;;;;;3.39;100.00;100861.81;5068207;28;20500;-78
2023/12/05 00:03:19;;;;;;;19.63;9.68;;;;;;;3.57;100.00;100900.50;5049918;28;20059;-81
2023/12/05 00:05:44;;;;;;;18.58;8.95;;;;;;;3.72;100.00;100925.38;5068253;28;20040;-79
2023/12/05 00:08:10;;;;;;;18.90;9.43;;;;;;;3.57;100.00;100887.31;5068393;28;20119;-77
2023/12/05 00:10:35;;;;;;;14.55;7.30;;;;;;;3.76;100.00;100920.59;5061416;28;20116;-78
2023/12/05 00:13:01;;;;;;;15.32;7.80;;;;;;;3.76;100.00;100897.72;5067776;28;20410;-78
2023/12/05 00:15:26;;;;;;;21.75;10.65;;;;;;;3.92;100.00;100936.56;5067436;28;20107;-78
2023/12/05 00:17:52;;;;;;;24.13;12.20;;;;;;;3.79;100.00;100917.66;5067214;28;20056;-78
2023/12/05 00:20:17;;;;;;;12.90;6.25;;;;;;;3.75;100.00;100918.97;5043061;28;20077;-77
2023/12/05 00:22:43;;;;;;;20.23;10.05;;;;;;;3.81;100.00;100918.34;5031864;28;20033;-77
2023/12/05 00:25:09;;;;;;;20.88;10.38;;;;;;;3.80;100.00;100911.41;5043565;28;20045;-76
2023/12/05 00:27:34;;;;;;;19.65;10.10;;;;;;;3.60;100.00;100895.75;5033522;28;20037;-80
2023/12/05 00:29:59;;;;;;;23.80;11.13;;;;;;;3.59;100.00;100888.81;5050830;28;20433;-77
2023/12/05 00:32:25;;;;;;;15.77;8.77;;;;;;;3.58;100.00;100902.19;5036997;28;20033;-77
2023/12/05 00:34:50;;;;;;;20.55;10.55;;;;;;;3.67;100.00;100884.59;5045216;28;20083;-77
2023/12/05 00:37:15;;;;;;;35.42;16.13;;;;;;;3.62;100.00;100888.53;5050489;28;20025;-77
2023/12/05 00:39:41;;;;;;;17.10;8.07;;;;;;;3.78;100.00;100886.97;5051269;28;20051;-77
2023/12/05 00:42:07;;;;;;;13.38;6.57;;;;;;;3.85;100.00;100892.47;5039236;28;20037;-80
2023/12/05 00:44:33;;;;;;;23.35;10.63;;;;;;;3.59;100.00;100882.72;5040832;28;20514;-77
2023/12/05 00:47:03;;;;;;;17.25;8.45;;;;;;;3.67;100.00;100895.16;5051247;28;20036;-77
2023/12/05 00:49:28;;;;;;;15.45;7.75;;;;;;;3.62;100.00;100866.59;5033291;28;20087;-76
2023/12/05 00:51:54;;;;;;;20.27;8.45;;;;;;;3.47;100.00;100868.94;5032503;28;20033;-77
2023/12/05 00:54:19;;;;;;;14.40;7.50;;;;;;;3.40;100.00;100855.53;5051046;28;20032;-77
2023/12/05 00:56:45;;;;;;;12.95;7.65;;;;;;;3.24;100.00;100841.41;5051146;28;20027;-76
2023/12/05 00:59:10;;;;;;;11.77;6.53;;;;;;;3.28;100.00;100858.59;5033842;28;20032;-77
2023/12/05 01:01:35;;;;;;;13.77;7.25;;;;;;;3.41;100.00;100837.91;5043607;28;20120;-76
2023/12/05 01:04:01;;;;;;;14.23;7.22;;;;;;;3.19;100.00;100849.78;5050921;28;20040;-77
2023/12/05 01:06:27;;;;;;;13.27;7.50;;;;;;;3.06;100.00;100851.94;5050832;28;20048;-76
2023/12/05 01:08:52;;;;;;;13.68;7.55;;;;;;;2.92;100.00;100819.03;5050347;28;20112;-78
2023/12/05 01:11:18;;;;;;;34.45;20.83;;;;;;;2.99;100.00;100828.03;5050457;28;20540;-77
2023/12/05 01:13:43;;;;;;;31.20;19.95;;;;;;;3.00;100.00;100816.50;5050913;28;20036;-77
2023/12/05 01:16:09;;;;;;;21.17;10.95;;;;;;;3.02;100.00;100827.69;5050836;28;20128;-77
2023/12/05 01:18:36;;;;;;;16.50;10.15;;;;;;;3.25;100.00;100836.00;5050086;28;20039;-77
2023/12/05 01:21:01;;;;;;;13.02;7.97;;;;;;;3.21;100.00;100832.84;5062940;28;20608;-79
2023/12/05 01:23:26;;;;;;;16.13;8.57;;;;;;;3.30;100.00;100844.25;5070742;28;20031;-79
2023/12/05 01:25:52;;;;;;;15.10;8.02;;;;;;;3.05;100.00;100831.88;5069923;28;20032;-77
2023/12/05 01:28:17;;;;;;;13.82;7.47;;;;;;;3.12;100.00;100820.53;5070058;28;20258;-78
2023/12/05 01:30:43;;;;;;;13.20;8.02;;;;;;;3.17;100.00;100815.66;5069182;28;20115;-77
2023/12/05 01:33:08;;;;;;;12.75;7.65;;;;;;;3.32;100.00;100836.22;5050881;28;20113;-76
2023/12/05 01:35:34;;;;;;;12.35;7.63;;;;;;;3.09;100.00;100812.97;5069961;28;20032;-78
2023/12/05 01:37:59;;;;;;;14.23;8.68;;;;;;;3.06;100.00;100781.63;5069973;28;20028;-77
2023/12/05 01:40:26;;;;;;;13.15;7.20;;;;;;;3.14;100.00;100820.41;5052196;28;20066;-77
2023/12/05 01:42:51;;;;;;;14.18;8.43;;;;;;;3.19;100.00;100791.78;5069834;28;20119;-78
2023/12/05 01:45:16;;;;;;;14.82;8.25;;;;;;;3.35;100.00;100796.34;5051835;28;20119;-78
2023/12/05 01:47:42;;;;;;;15.27;8.55;;;;;;;3.31;100.00;100800.25;5070330;28;20021;-77
2023/12/05 01:50:18;;;;;;;17.33;9.15;;;;;;;3.00;100.00;100804.16;5070095;28;20029;-77
2023/12/05 01:52:49;;;;;;;16.27;8.70;;;;;;;2.95;100.00;100779.25;5051707;28;20089;-80
2023/12/05 01:55:15;;;;;;;14.23;8.68;;;;;;;2.89;100.00;100779.84;5071054;28;20059;-77
2023/12/05 01:57:42;;;;;;;14.88;8.52;;;;;;;2.92;100.00;100787.44;5069911;28;20027;-77
2023/12/05 02:00:08;;;;;;;15.13;8.75;;;;;;;2.42;100.00;100739.56;5069463;28;20048;-80
2023/12/05 02:02:35;;;;;;;16.27;9.75;;;;;;;2.84;100.00;100768.91;5070015;28;20035;-77
2023/12/05 02:05:02;;;;;;;19.77;10.25;;;;;;;2.63;100.00;100785.03;5069126;28;20033;-77
2023/12/05 02:07:29;;;;;;;18.00;9.77;;;;;;;2.65;100.00;100757.56;5069382;28;20027;-76
2023/12/05 02:09:55;;;;;;;18.67;10.98;;;;;;;2.64;100.00;100770.91;5051675;28;20024;-76
2023/12/05 02:12:20;;;;;;;17.98;11.05;;;;;;;2.79;100.00;100758.84;5062068;28;20841;-77
2023/12/05 02:14:46;;;;;;;20.15;11.23;;;;;;;2.99;100.00;100776.13;5069484;28;20020;-77
2023/12/05 02:17:35;;;;;;;18.38;10.25;;;;;;;2.75;100.00;100758.31;5069462;28;20065;-77
2023/12/05 02:20:28;;;;;;;18.95;9.95;;;;;;;2.60;100.00;100771.19;5069285;28;20048;-77
2023/12/05 02:23:24;;;;;;;17.27;10.77;;;;;;;2.63;100.00;100738.44;5055328;28;20563;-77
2023/12/05 02:26:10;;;;;;;18.23;11.52;;;;;;;2.77;100.00;100772.16;5068939;28;20673;-77
2023/12/05 02:28:37;;;;;;;19.23;10.38;;;;;;;2.68;100.00;100751.19;5051459;28;20026;-77
2023/12/05 02:31:03;;;;;;;18.48;10.02;;;;;;;2.69;100.00;100758.91;5069160;28;20032;-78
2023/12/05 02:33:29;;;;;;;21.05;11.85;;;;;;;2.76;100.00;100733.63;5069331;28;20111;-76
2023/12/05 02:36:07;;;;;;;21.15;11.25;;;;;;;2.84;100.00;100774.19;5068668;28;20112;-76
2023/12/05 02:38:59;;;;;;;21.67;10.40;;;;;;;2.62;100.00;100742.06;5069015;28;20052;-77
2023/12/05 02:41:29;;;;;;;20.38;10.43;;;;;;;2.42;100.00;100726.41;5055236;28;20062;-77
2023/12/05 02:44:01;;;;;;;23.60;13.23;;;;;;;2.66;100.00;100730.25;5069421;28;20038;-78
2023/12/05 02:46:28;;;;;;;32.42;19.52;;;;;;;2.66;100.00;100738.16;5065141;28;20032;-78
2023/12/05 02:48:55;;;;;;;20.65;11.23;;;;;;;2.53;100.00;100733.25;5069609;28;20028;-78
2023/12/05 02:51:20;;;;;;;22.58;11.95;;;;;;;2.70;100.00;100743.97;5069021;28;20025;-77
2023/12/05 02:53:45;;;;;;;22.58;11.88;;;;;;;2.59;100.00;100743.16;5069098;28;20028;-77
2023/12/05 02:56:11;;;;;;;24.73;13.23;;;;;;;2.64;100.00;100745.38;5068846;28;20029;-77
2023/12/05 02:58:36;;;;;;;26.80;13.90;;;;;;;2.54;100.00;100742.00;5069632;28;20032;-77
2023/12/05 03:01:02;;;;;;;26.83;12.70;;;;;;;2.56;100.00;100709.25;5060054;28;20035;-77
2023/12/05 03:03:27;;;;;;;28.42;11.93;;;;;;;2.66;100.00;100743.41;5067172;28;20469;-77
2023/12/05 03:05:53;;;;;;;24.98;13.60;;;;;;;2.79;100.00;100741.22;5084007;28;20055;-77
2023/12/05 03:08:18;;;;;;;30.35;18.35;;;;;;;2.83;100.00;100731.22;5085189;28;20051;-79
2023/12/05 03:10:44;;;;;;;27.75;14.75;;;;;;;2.79;100.00;100743.84;5086539;28;20021;-79
2023/12/05 03:13:09;;;;;;;31.13;17.20;;;;;;;2.75;100.00;100745.13;5084316;28;20470;-77
2023/12/05 03:15:34;;;;;;;35.08;17.98;;;;;;;2.72;100.00;100747.28;5083083;28;20036;-81
2023/12/05 03:18:00;;;;;;;56.03;30.35;;;;;;;2.71;100.00;100737.69;5084462;28;20107;-78
2023/12/05 03:20:25;;;;;;;34.42;20.00;;;;;;;2.72;100.00;100744.63;5082436;28;20378;-77
2023/12/05 03:22:51;;;;;;;37.13;21.30;;;;;;;2.33;100.00;100708.88;5082544;28;20043;-77
2023/12/05 03:25:16;;;;;;;27.92;15.15;;;;;;;2.65;100.00;100739.13;5081960;28;20024;-78
2023/12/05 03:27:42;;;;;;;35.15;20.92;;;;;;;2.68;100.00;100694.06;5080783;28;20111;-78
2023/12/05 03:30:08;;;;;;;25.50;15.13;;;;;;;2.81;100.00;100715.56;5061367;28;20039;-79
2023/12/05 03:32:33;;;;;;;54.35;31.85;;;;;;;2.69;100.00;100692.25;5059988;28;20028;-79
2023/12/05 03:34:59;;;;;;;30.67;15.60;;;;;;;2.93;100.00;100715.34;5075606;28;20272;-78
2023/12/05 03:37:24;;;;;;;24.17;12.00;;;;;;;2.86;100.00;100709.00;5054981;28;20012;-78
2023/12/05 03:39:50;;;;;;;24.10;12.75;;;;;;;2.56;100.00;100682.13;5070262;28;20024;-78
2023/12/05 03:42:15;;;;;;;26.25;12.60;;;;;;;2.78;100.00;100710.59;5069573;28;20025;-75
2023/12/05 03:44:40;;;;;;;47.05;25.02;;;;;;;2.66;100.00;100701.28;5069237;28;20081;-77
2023/12/05 03:47:06;;;;;;;25.75;11.95;;;;;;;2.74;100.00;100693.47;5068678;28;20425;-78
2023/12/05 03:49:31;;;;;;;26.02;13.25;;;;;;;2.66;100.00;100680.22;5069021;28;20032;-77
2023/12/05 03:51:56;;;;;;;21.20;9.82;;;;;;;2.46;100.00;100689.25;5067901;28;20025;-75
2023/12/05 03:54:22;;;;;;;25.15;13.65;;;;;;;2.73;100.00;100715.50;5068109;28;20037;-77
2023/12/05 03:56:47;;;;;;;26.98;13.23;;;;;;;2.78;100.00;100691.34;5050800;28;20017;-77
2023/12/05 03:59:13;;;;;;;26.52;12.23;;;;;;;3.05;100.00;100694.84;5054053;28;20568;-77
2023/12/05 04:01:38;;;;;;;25.05;11.48;;;;;;;2.98;100.00;100710.41;5054172;28;20481;-78
2023/12/05 04:04:04;;;;;;;26.55;12.48;;;;;;;2.99;100.00;100712.09;5053782;28;20062;-77
2023/12/05 04:06:29;;;;;;;28.77;14.25;;;;;;;3.01;100.00;100726.75;5071726;28;20485;-76
2023/12/05 04:08:54;;;;;;;24.63;12.23;;;;;;;3.29;100.00;100731.06;5070992;28;20090;-78
2023/12/05 04:11:31;;;;;;;26.13;12.80;;;;;;;3.24;100.00;100720.16;5071196;28;20017;-77
2023/12/05 04:13:57;;;;;;;24.48;12.60;;;;;;;3.10;100.00;100718.91;5070708;28;20417;-78
2023/12/05 04:16:23;;;;;;;30.45;16.23;;;;;;;3.47;100.00;100731.81;5070795;28;20093;-78
2023/12/05 04:18:49;;;;;;;28.65;16.55;;;;;;;3.39;100.00;100703.63;5053026;28;20557;-76
2023/12/05 04:21:15;;;;;;;24.08;15.20;;;;;;;3.46;100.00;100729.38;5070932;28;20498;-77
2023/12/05 04:23:41;;;;;;;21.77;11.23;;;;;;;3.67;100.00;100739.53;5053373;28;20025;-78
2023/12/05 04:26:06;;;;;;;26.33;13.38;;;;;;;3.31;100.00;100715.91;5071671;28;20077;-76
2023/12/05 04:28:32;;;;;;;24.95;12.27;;;;;;;3.42;100.00;100756.03;5053623;28;20024;-78
2023/12/05 04:30:58;;;;;;;23.27;12.05;;;;;;;3.52;100.00;100726.91;5071646;28;20025;-80
2023/12/05 04:33:23;;;;;;;23.02;11.35;;;;;;;3.75;100.00;100731.66;5071436;28;20074;-77
2023/12/05 04:35:49;;;;;;;26.25;12.15;;;;;;;3.54;100.00;100711.78;5053360;28;20411;-77
2023/12/05 04:38:15;;;;;;;32.83;14.23;;;;;;;3.48;100.00;100714.22;5070963;28;20020;-76
2023/12/05 04:40:41;;;;;;;34.15;16.60;;;;;;;3.51;100.00;100725.25;5071062;28;20092;-76
2023/12/05 04:43:06;;;;;;;28.70;13.48;;;;;;;3.49;100.00;100721.13;5071143;28;20440;-77
2023/12/05 04:45:31;;;;;;;27.58;13.88;;;;;;;3.70;100.00;100731.28;5070955;28;20036;-78
2023/12/05 04:47:57;;;;;;;27.08;13.63;;;;;;;3.71;100.00;100711.84;5053267;28;20032;-77
2023/12/05 04:50:22;;;;;;;26.23;13.88;;;;;;;3.79;100.00;100746.19;5071168;28;20107;-80
2023/12/05 04:52:47;;;;;;;25.58;11.43;;;;;;;3.56;100.00;100730.06;5070808;28;20024;-77
2023/12/05 04:55:13;;;;;;;22.20;11.15;;;;;;;3.71;100.00;100748.78;5070899;28;20472;-78
2023/12/05 04:57:38;;;;;;;25.48;11.65;;;;;;;3.67;100.00;100721.06;5070873;28;20019;-77
2023/12/05 05:00:05;;;;;;;23.92;11.50;;;;;;;3.82;100.00;100732.66;5053241;28;20051;-78
2023/12/05 05:02:30;;;;;;;25.77;11.40;;;;;;;3.76;100.00;100710.41;5070174;28;20025;-78
2023/12/05 05:04:56;;;;;;;23.70;11.82;;;;;;;3.66;100.00;100724.66;5070920;28;20025;-77
2023/12/05 05:07:21;;;;;;;21.27;11.43;;;;;;;3.61;100.00;100727.78;5070592;28;20400;-78
2023/12/05 05:09:47;;;;;;;25.45;11.63;;;;;;;3.38;100.00;100725.69;5069954;28;20024;-77
2023/12/05 05:12:13;;;;;;;20.60;11.18;;;;;;;3.48;100.00;100707.13;5070985;28;20086;-77
2023/12/05 05:14:38;;;;;;;22.80;11.65;;;;;;;3.21;100.00;100689.69;5052726;28;20036;-80
2023/12/05 05:17:04;;;;;;;22.10;10.98;;;;;;;3.81;100.00;100736.28;5070297;28;20504;-78
2023/12/05 05:19:31;;;;;;;31.42;13.93;;;;;;;3.70;100.00;100731.28;5053153;28;20557;-77
2023/12/05 05:21:57;;;;;;;23.83;11.70;;;;;;;3.37;100.00;100716.13;5070828;28;20063;-78
2023/12/05 05:24:22;;;;;;;25.60;11.65;;;;;;;3.39;100.00;100703.63;5070995;28;20112;-81
2023/12/05 05:26:47;;;;;;;21.20;11.70;;;;;;;3.74;100.00;100706.25;5070450;28;20386;-78
2023/12/05 05:29:13;;;;;;;26.70;12.68;;;;;;;3.43;100.00;100685.66;5070496;28;20107;-77
2023/12/05 05:31:38;;;;;;;24.40;11.40;;;;;;;3.55;100.00;100713.41;5070505;28;20025;-79
2023/12/05 05:34:04;;;;;;;25.20;13.48;;;;;;;3.71;100.00;100701.28;5070980;28;20029;-77
2023/12/05 05:36:29;;;;;;;29.20;12.88;;;;;;;3.81;100.00;100699.34;5052152;28;20412;-77
2023/12/05 05:38:54;;;;;;;25.02;12.35;;;;;;;3.83;100.00;100726.41;5070431;28;20173;-78
2023/12/05 05:41:20;;;;;;;25.70;11.80;;;;;;;3.51;100.00;100696.25;5070302;28;20119;-77
2023/12/05 05:43:45;;;;;;;22.42;11.07;;;;;;;3.59;100.00;100688.38;5051912;28;20036;-79
2023/12/05 05:46:10;;;;;;;25.17;11.85;;;;;;;3.74;100.00;100687.78;5069671;28;20112;-78
2023/12/05 05:48:36;;;;;;;22.33;11.65;;;;;;;3.81;100.00;100681.72;5069871;28;20037;-78
2023/12/05 05:51:01;;;;;;;22.40;11.23;;;;;;;3.94;100.00;100690.97;5070137;28;20021;-78
2023/12/05 05:53:27;;;;;;;26.05;14.10;;;;;;;3.60;100.00;100668.94;5070399;28;20067;-78
2023/12/05 05:55:52;;;;;;;33.78;16.42;;;;;;;3.63;100.00;100684.44;5052451;28;20086;-77
2023/12/05 05:58:18;;;;;;;30.15;14.25;;;;;;;3.47;100.00;100684.34;5069516;28;20112;-77
2023/12/05 06:00:44;;;;;;;28.55;15.00;;;;;;;3.38;100.00;100686.13;5051910;28;20028;-79
2023/12/05 06:03:09;;;;;;;57.72;34.15;;;;;;;3.73;100.00;100672.94;5069787;28;20093;-78
2023/12/05 06:05:35;;;;;;;49.33;23.45;;;;;;;3.80;100.00;100673.94;5069570;28;20116;-77
2023/12/05 06:08:00;;;;;;;66.85;39.80;;;;;;;3.95;100.00;100687.38;5071757;28;20047;-78
2023/12/05 06:10:27;;;;;;;38.33;18.92;;;;;;;3.77;100.00;100669.00;5070010;28;20029;-77
2023/12/05 06:12:52;;;;;;;32.38;16.27;;;;;;;3.80;100.00;100666.03;5068960;28;20052;-76
2023/12/05 06:15:18;;;;;;;30.77;13.88;;;;;;;3.75;100.00;100686.81;5050486;28;20025;-77
2023/12/05 06:17:44;;;;;;;33.10;16.08;;;;;;;3.83;100.00;100685.00;5051150;28;20046;-77
2023/12/05 06:20:10;;;;;;;33.25;15.73;;;;;;;3.82;100.00;100674.59;5068707;28;20129;-77
2023/12/05 06:22:35;;;;;;;35.65;17.30;;;;;;;3.58;100.00;100649.00;5069432;28;20040;-78
2023/12/05 06:25:01;;;;;;;34.17;15.93;;;;;;;3.90;100.00;100679.91;5069087;28;20024;-78
2023/12/05 06:27:26;;;;;;;35.53;16.13;;;;;;;3.81;100.00;100680.88;5069365;28;20033;-79
2023/12/05 06:29:52;;;;;;;29.70;14.50;;;;;;;3.98;100.00;100679.97;5068966;28;20036;-78
2023/12/05 06:32:17;;;;;;;34.08;18.52;;;;;;;4.35;100.00;100704.28;5051047;28;20490;-80
2023/12/05 06:34:42;;;;;;;37.35;21.15;;;;;;;4.12;100.00;100672.41;5066714;28;20103;-77
2023/12/05 06:37:08;;;;;;;32.25;16.73;;;;;;;4.43;100.00;100710.44;5049547;28;20090;-79
2023/12/05 06:39:34;;;;;;;30.83;14.55;;;;;;;4.21;100.00;100676.72;5062403;28;20505;-77
2023/12/05 06:42:00;;;;;;;33.67;14.95;;;;;;;4.28;100.00;100677.72;5060055;28;20117;-77
2023/12/05 06:44:25;;;;;;;33.17;15.88;;;;;;;4.09;100.00;100657.72;5056021;28;20028;-76
2023/12/05 06:46:51;;;;;;;29.90;15.85;;;;;;;4.27;100.00;100678.72;5064326;28;20020;-77
2023/12/05 06:49:16;;;;;;;33.25;17.73;;;;;;;4.36;100.00;100680.34;5038972;28;20036;-80
2023/12/05 06:51:42;;;;;;;34.60;17.75;;;;;;;4.34;100.00;100665.69;5060010;28;20166;-78
2023/12/05 06:54:07;;;;;;;41.53;23.42;;;;;;;4.28;100.00;100677.72;5047435;28;20119;-79
2023/12/05 06:56:32;;;;;;;30.88;15.40;;;;;;;4.09;100.00;100656.91;5068519;28;20043;-76
2023/12/05 06:59:00;;;;;;;30.08;13.95;;;;;;;4.23;100.00;100664.19;5068351;28;20685;-84
2023/12/05 07:01:26;;;;;;;26.60;13.45;;;;;;;4.18;100.00;100666.47;5051262;28;20028;-78
2023/12/05 07:03:52;;;;;;;29.63;12.18;;;;;;;4.27;100.00;100659.38;5050671;28;20028;-76
2023/12/05 07:06:17;;;;;;;28.85;13.10;;;;;;;4.43;100.00;100685.81;5068990;28;20021;-77
2023/12/05 07:08:43;;;;;;;27.02;13.75;;;;;;;4.58;100.00;100692.09;5068745;28;20056;-77
2023/12/05 07:11:08;;;;;;;26.67;14.60;;;;;;;4.90;100.00;100710.75;5068828;28;20029;-77
2023/12/05 07:13:34;;;;;;;26.60;13.07;;;;;;;4.60;100.00;100662.91;5068183;28;20038;-77
2023/12/05 07:15:59;;;;;;;22.67;12.10;;;;;;;4.73;100.00;100700.19;5068354;28;20016;-79
2023/12/05 07:18:25;;;;;;;24.88;11.90;;;;;;;4.37;100.00;100684.66;5068376;28;20123;-76
2023/12/05 07:20:50;;;;;;;30.00;14.95;;;;;;;4.64;100.00;100698.56;5061308;28;20394;-77
2023/12/05 07:23:16;;;;;;;28.33;13.23;;;;;;;4.69;100.00;100701.50;5068225;28;20055;-78
2023/12/05 07:25:41;;;;;;;26.95;13.52;;;;;;;4.52;100.00;100690.13;5068189;28;20036;-75
2023/12/05 07:28:07;;;;;;;27.92;13.15;;;;;;;4.78;100.00;100703.19;5050506;28;20040;-77
2023/12/05 07:30:32;;;;;;;24.70;12.00;;;;;;;4.61;100.00;100672.44;5050296;28;20489;-81
2023/12/05 07:32:57;;;;;;;26.17;14.02;;;;;;;4.77;100.00;100696.22;5049756;28;20056;-77
2023/12/05 07:35:23;;;;;;;26.73;14.93;;;;;;;4.70;100.00;100682.03;5050136;28;20086;-77
2023/12/05 07:37:49;;;;;;;26.35;12.50;;;;;;;4.69;100.00;100690.13;5051712;28;20402;-79
2023/12/05 07:40:15;;;;;;;25.70;11.48;;;;;;;4.60;100.00;100665.53;5048593;28;20029;-78
2023/12/05 07:42:40;;;;;;;24.48;12.95;;;;;;;4.79;100.00;100683.69;5050637;28;20036;-79
2023/12/05 07:45:07;;;;;;;22.50;11.95;;;;;;;4.72;100.00;100666.00;5059062;28;20029;-77
2023/12/05 07:47:33;;;;;;;21.00;10.88;;;;;;;6.76;100.00;100690.81;5066056;28;20086;-77
2023/12/05 07:49:59;;;;;;;21.33;10.55;;;;;;;8.02;100.00;100664.38;5059446;28;20099;-76
2023/12/05 07:52:25;;;;;;;25.13;12.52;;;;;;;8.29;96.44;100708.00;5060698;28;20059;-78
2023/12/05 07:54:51;;;;;;;22.20;10.98;;;;;;;8.20;96.94;100727.75;5062263;28;20401;-79
2023/12/05 07:57:22;;;;;;;25.17;11.02;;;;;;;7.57;97.68;100677.72;5065863;28;20454;-77
2023/12/05 07:59:48;;;;;;;19.98;10.00;;;;;;;8.51;92.15;100703.56;5052080;28;20025;-77
2023/12/05 08:02:13;;;;;;;22.30;10.00;;;;;;;7.94;93.60;100667.97;5056891;28;20122;-78
2023/12/05 08:04:38;;;;;;;20.88;10.88;;;;;;;8.44;91.96;100679.59;5058569;28;20033;-78
2023/12/05 08:07:04;;;;;;;22.00;10.23;;;;;;;8.35;89.84;100688.66;5054558;28;20089;-78
2023/12/05 08:09:29;;;;;;;19.63;10.07;;;;;;;8.83;87.45;100714.72;5056129;28;20117;-78
2023/12/05 08:11:55;;;;;;;18.17;10.10;;;;;;;8.06;89.25;100697.53;5055921;28;20032;-77
2023/12/05 08:14:20;;;;;;;20.98;11.35;;;;;;;8.29;91.11;100701.88;5067248;28;20016;-76
2023/12/05 08:16:46;;;;;;;20.02;10.60;;;;;;;8.73;86.19;100687.63;5049882;28;20044;-78
2023/12/05 08:19:12;;;;;;;21.67;11.82;;;;;;;7.44;93.73;100673.06;5067449;28;20029;-78
2023/12/05 08:21:37;;;;;;;25.33;11.68;;;;;;;8.37;89.69;100688.47;5067504;28;20432;-77
2023/12/05 08:24:03;;;;;;;20.48;11.40;;;;;;;7.14;94.82;100693.44;5063122;28;20021;-77
2023/12/05 08:26:29;;;;;;;26.50;12.38;;;;;;;6.59;99.23;100679.50;5051467;28;20056;-80
2023/12/05 08:28:55;;;;;;;25.00;13.18;;;;;;;6.29;100.00;100665.31;5067447;28;20047;-78
2023/12/05 08:31:20;;;;;;;23.83;13.75;;;;;;;6.38;100.00;100661.63;5067514;28;20032;-78
2023/12/05 08:33:46;;;;;;;26.45;13.20;;;;;;;6.76;100.00;100648.41;5067633;28;20405;-76
2023/12/05 08:36:11;;;;;;;23.73;12.02;;;;;;;6.37;100.00;100662.63;5067248;28;20108;-78
2023/12/05 08:38:37;;;;;;;25.17;12.82;;;;;;;6.95;100.00;100651.56;5067766;28;20031;-78
2023/12/05 08:41:02;;;;;;;23.77;13.30;;;;;;;7.38;97.71;100662.38;5068023;28;20481;-77
2023/12/05 08:43:27;;;;;;;29.55;14.88;;;;;;;6.64;100.00;100639.25;5068807;28;20618;-77
2023/12/05 08:45:53;;;;;;;32.83;15.35;;;;;;;6.57;100.00;100662.97;5070380;28;20115;-77
2023/12/05 08:48:18;;;;;;;29.50;14.18;;;;;;;6.64;100.00;100620.69;5053089;28;20036;-78
2023/12/05 08:50:44;;;;;;;26.02;14.38;;;;;;;6.18;100.00;100596.88;5053000;28;20122;-77
2023/12/05 08:53:09;;;;;;;25.88;13.40;;;;;;;5.93;100.00;100617.38;5053020;28;20044;-78
2023/12/05 08:55:34;;;;;;;30.88;14.82;;;;;;;5.44;100.00;100578.78;5071156;28;20512;-79
2023/12/05 08:58:00;;;;;;;26.55;14.27;;;;;;;5.27;100.00;100593.03;5048951;28;20028;-77
2023/12/05 09:00:25;;;;;;;30.67;15.55;;;;;;;5.31;100.00;100594.34;5071190;28;20700;-78
2023/12/05 09:02:51;;;;;;;40.72;23.40;;;;;;;5.90;100.00;100615.06;5070889;28;20024;-76
2023/12/05 09:05:16;;;;;;;29.90;16.02;;;;;;;5.71;100.00;100603.94;5070282;28;20535;-81
2023/12/05 09:07:41;;;;;;;31.45;16.95;;;;;;;5.72;100.00;100591.50;5070923;28;20032;-78
2023/12/05 09:10:07;;;;;;;30.02;15.88;;;;;;;5.69;100.00;100597.16;5070611;28;20089;-78
2023/12/05 09:12:32;;;;;;;33.92;17.70;;;;;;;5.74;100.00;100600.09;5052790;28;20024;-77
2023/12/05 09:14:58;;;;;;;34.40;19.50;;;;;;;5.67;100.00;100588.56;5070031;28;20115;-78
2023/12/05 09:17:24;;;;;;;42.70;19.88;;;;;;;5.88;100.00;100614.41;5052513;28;20412;-77
2023/12/05 09:19:52;;;;;;;34.78;18.58;;;;;;;5.64;100.00;100621.50;5070464;28;20451;-79
2023/12/05 09:22:17;;;;;;;40.95;20.83;;;;;;;5.56;100.00;100585.31;5052497;28;20020;-78
2023/12/05 09:24:43;;;;;;;44.85;24.75;;;;;;;5.71;100.00;100580.09;5070462;28;20101;-78
2023/12/05 09:27:08;;;;;;;32.80;18.10;;;;;;;5.38;100.00;100569.69;5070128;28;20412;-79
2023/12/05 09:29:34;;;;;;;31.23;16.27;;;;;;;5.39;100.00;100586.38;5070596;28;20033;-78
2023/12/05 09:32:00;;;;;;;35.67;17.63;;;;;;;5.82;100.00;100592.09;5070485;28;20024;-78
2023/12/05 09:34:25;;;;;;;32.78;17.80;;;;;;;5.93;100.00;100567.09;5070442;28;20060;-79
2023/12/05 09:36:51;;;;;;;33.63;17.42;;;;;;;5.99;100.00;100559.28;5070311;28;20051;-80
2023/12/05 09:39:16;;;;;;;43.80;19.40;;;;;;;5.68;100.00;100571.69;5070263;28;20025;-78
2023/12/05 09:41:47;;;;;;;36.08;17.75;;;;;;;5.47;100.00;100520.22;5070103;28;20027;-79
2023/12/05 09:44:13;;;;;;;35.22;17.33;;;;;;;6.00;100.00;100568.03;5070520;28;20097;-79
2023/12/05 09:46:46;;;;;;;34.58;18.77;;;;;;;5.85;100.00;100544.13;5070028;28;20032;-79
2023/12/05 09:49:14;;;;;;;46.47;22.30;;;;;;;6.15;100.00;100562.78;5070128;28;20153;-77
2023/12/05 09:51:41;;;;;;;43.75;25.45;;;;;;;6.16;100.00;100553.84;5070188;28;20029;-78
2023/12/05 09:54:06;;;;;;;39.55;22.60;;;;;;;6.35;100.00;100556.00;5069188;28;20064;-78
2023/12/05 09:56:33;;;;;;;80.85;60.50;;;;;;;6.32;100.00;100542.31;5069460;28;20052;-78
2023/12/05 09:58:59;;;;;;;35.85;19.35;;;;;;;6.39;100.00;100529.97;5069701;28;20064;-81
2023/12/05 10:01:26;;;;;;;44.22;21.50;;;;;;;6.53;100.00;100517.75;5069656;28;20078;-78
2023/12/05 10:03:56;;;;;;;47.13;23.77;;;;;;;6.55;100.00;100518.41;5069661;28;20048;-80
2023/12/05 10:06:24;;;;;;;53.67;33.78;;;;;;;6.59;100.00;100519.69;5069700;28;20028;-76
2023/12/05 10:08:52;;;;;;;44.30;23.23;;;;;;;6.78;100.00;100529.78;5069113;28;20142;-78
2023/12/05 10:11:20;;;;;;;39.23;20.43;;;;;;;6.64;100.00;100512.03;5070025;28;20048;-78
2023/12/05 10:13:46;;;;;;;39.47;20.60;;;;;;;6.71;100.00;100506.81;5051451;28;20060;-78
2023/12/05 10:16:12;;;;;;;44.17;21.60;;;;;;;6.61;100.00;100496.47;5069806;28;20071;-80
2023/12/05 10:18:39;;;;;;;47.05;24.17;;;;;;;6.39;100.00;100463.75;5068834;28;20928;-77
2023/12/05 10:21:05;;;;;;;43.30;21.17;;;;;;;5.88;100.00;100496.13;5068937;28;20079;-77
2023/12/05 10:23:32;;;;;;;45.90;23.50;;;;;;;5.78;100.00;100490.25;5051439;28;20044;-78
2023/12/05 10:25:57;;;;;;;42.95;21.90;;;;;;;5.86;100.00;100470.84;5069277;28;20047;-79
2023/12/05 10:28:23;;;;;;;77.57;43.47;;;;;;;5.87;100.00;100454.78;5068808;28;20024;-79
2023/12/05 10:30:48;;;;;;;42.53;22.05;;;;;;;5.98;100.00;100472.91;5051293;28;20036;-77
2023/12/05 10:33:14;;;;;;;42.28;25.13;;;;;;;5.98;100.00;100475.53;5051493;28;20024;-79
2023/12/05 10:35:41;;;;;;;40.67;22.20;;;;;;;6.13;100.00;100480.06;5050528;28;20060;-77
2023/12/05 10:38:14;;;;;;;39.55;18.10;;;;;;;5.61;100.00;100474.47;5068575;28;20058;-79
2023/12/05 10:41:01;;;;;;;35.75;18.60;;;;;;;5.67;100.00;100429.81;5051289;28;20032;-78
2023/12/05 10:43:30;;;;;;;34.60;17.52;;;;;;;5.88;100.00;100445.81;5069236;28;20039;-79
2023/12/05 10:45:57;;;;;;;36.47;18.50;;;;;;;6.19;100.00;100452.84;5068705;28;20421;-77
2023/12/05 10:48:25;;;;;;;39.50;20.08;;;;;;;5.82;100.00;100439.44;5069039;28;20119;-80
2023/12/05 10:50:51;;;;;;;41.13;19.90;;;;;;;5.97;100.00;100436.84;5059826;28;20072;-79
2023/12/05 10:53:17;;;;;;;41.60;21.65;;;;;;;6.02;100.00;100429.19;5042471;28;20080;-78
2023/12/05 10:55:43;;;;;;;43.72;22.60;;;;;;;6.08;100.00;100426.84;5059694;28;20048;-81
2023/12/05 10:58:09;;;;;;;40.90;21.77;;;;;;;6.23;100.00;100430.31;5059807;28;20016;-78
2023/12/05 11:00:39;;;;;;;37.20;17.58;;;;;;;5.83;100.00;100413.78;5047231;28;20039;-78
2023/12/05 11:03:05;;;;;;;31.90;16.75;;;;;;;5.73;100.00;100423.81;5059218;28;20028;-78
2023/12/05 11:05:32;;;;;;;36.55;17.35;;;;;;;5.68;100.00;100394.41;5054688;28;20036;-80
2023/12/05 11:07:58;;;;;;;32.75;15.95;;;;;;;5.86;100.00;100397.53;5047243;28;20038;-78